ADDS METAR Data INFO
IDs: Format: Raw Decoded Include TAF

Data at: 2111 UTC 22 Oct 2017

K18A 222055Z AUTO 12003KT 10SM OVC050 A3019 RMK AO2
K18A 222035Z AUTO 13004KT 10SM OVC050 A3020 RMK AO2
K18A 222015Z AUTO 12004KT 10SM SCT050 OVC065 A3020 RMK AO2
K18A 221955Z AUTO 10004KT 10SM SCT050 OVC065 A3020 RMK AO2
K18A 221935Z AUTO 11003KT 10SM SCT046 SCT065 A3020 RMK AO2
K18A 221915Z AUTO 07003KT 10SM SCT046 SCT050 BKN065 A3021 RMK AO2
K18A 221855Z AUTO 05006KT 10SM BKN050 OVC065 A3022 RMK AO2
K18A 221835Z AUTO 09004KT 10SM SCT042 OVC050 A3023 RMK AO2
K18A 221815Z AUTO 11004KT 10SM SCT039 BKN047 OVC050 A3023 RMK AO2
K18A 221755Z AUTO 09004KT 10SM SCT035 OVC043 A3025 RMK AO2
K18A 221735Z AUTO 09006KT 10SM SCT033 BKN043 BKN049 25/16 A3026 RMK AO2 T02520162
K18A 221715Z AUTO 11006KT 10SM SCT033 SCT049 A3027 RMK AO2
K18A 221655Z AUTO 13007KT 10SM SCT029 24/16 A3028 RMK AO2 T02440163
K18A 221635Z AUTO 11008KT 10SM SCT027 24/17 A3029 RMK AO2 T02420166
K18A 221615Z AUTO 11007KT 10SM SCT037 24/16 A3030 RMK AO2 T02370163
K18A 221555Z AUTO 08005KT 10SM SCT037 BKN055 24/17 A3031 RMK AO2 T02350167
K18A 221535Z AUTO 11005KT 10SM BKN055 23/17 A3031 RMK AO2 T02250168
K18A 221515Z AUTO 07003KT 10SM SCT047 SCT055 21/17 A3031 RMK AO2 T02130166
K18A 221455Z AUTO 11005KT 10SM BKN055 19/16 A3032 RMK AO2 T01940158
K18A 221435Z AUTO 09005KT 10SM SCT049 BKN055 19/15 A3032 RMK AO2 T01860151
K18A 221415Z AUTO 08004KT 10SM SCT049 BKN055 18/15 A3033 RMK AO2 T01800147
K18A 221355Z AUTO 00000KT 10SM SCT040 SCT047 BKN055 17/15 A3034 RMK AO2 T01710145
K18A 221335Z AUTO 00000KT 10SM SCT040 BKN049 BKN055 16/14 A3034 RMK AO2 T01600137
K18A 221315Z AUTO 00000KT 10SM SCT037 SCT044 BKN049 15/14 A3034 RMK AO2 T01530135
K18A 221255Z AUTO 00000KT 10SM SCT041 SCT048 SCT050 15/14 A3032 RMK AO2 T01480135
K18A 221235Z AUTO 00000KT 10SM BKN046 BKN050 14/13 A3032 RMK AO2 T01420130
K18A 221215Z AUTO 00000KT 10SM BKN046 14/13 A3030 RMK AO2 T01400130
K18A 221155Z AUTO 04003KT 10SM SCT046 14/13 A3030 RMK AO2 T01360126 10155 20129
K18A 221135Z AUTO 00000KT 10SM SCT049 14/13 A3029 RMK AO2 T01390128
K18A 221115Z AUTO 06003KT 10SM SCT049 14/13 A3029 RMK AO2 T01390128
K18A 221055Z AUTO 00000KT 10SM SCT049 14/13 A3029 RMK AO2 T01390128
K18A 221035Z AUTO 09003KT 10SM SCT049 14/13 A3028 RMK AO2 T01350129
K18A 221015Z AUTO 00000KT 10SM CLR 13/12 A3028 RMK AO2 T01310117
K18A 220955Z AUTO 00000KT 10SM SCT039 14/13 A3028 RMK AO2 T01440127
K18A 220935Z AUTO 00000KT 10SM SCT039 14/12 A3029 RMK AO2 T01390124
K18A 220915Z AUTO 00000KT 10SM SCT036 15/13 A3029 RMK AO2 T01460126
K18A 220855Z AUTO 00000KT 10SM CLR 15/13 A3029 RMK AO2 T01460126
K18A 220835Z AUTO 05003KT 10SM SCT045 15/13 A3029 RMK AO2 T01500128
K18A 220815Z AUTO 00000KT 10SM BKN045 15/13 A3029 RMK AO2 T01520127
K18A 220755Z AUTO 00000KT 10SM OVC043 15/13 A3029 RMK AO2 T01510127
K18A 220735Z AUTO 00000KT 10SM SCT029 BKN043 15/12 A3029 RMK AO2 T01450124
K18A 220715Z AUTO 00000KT 10SM CLR 15/13 A3030 RMK AO2 T01510125
K18A 220655Z AUTO 00000KT 10SM CLR 15/13 A3029 RMK AO2 T01510126
K18A 220635Z AUTO 00000KT 10SM CLR 15/13 A3030 RMK AO2 T01500127
K18A 220615Z AUTO 00000KT 10SM CLR 15/13 A3030 RMK AO2 T01510128
K18A 220555Z AUTO 00000KT 10SM CLR 15/13 A3030 RMK AO2 T01480128 10193 20147 402510090
K18A 220535Z AUTO 00000KT 10SM CLR 15/13 A3030 RMK AO2 T01470126
K18A 220515Z AUTO 00000KT 10SM CLR 15/13 A3031 RMK AO2 T01540129
K18A 220455Z AUTO 05003KT 10SM CLR 16/13 A3031 RMK AO2 T01560125
K18A 220435Z AUTO 00000KT 10SM CLR 15/12 A3031 RMK AO2 T01540120
K18A 220415Z AUTO 00000KT 10SM CLR 17/12 A3031 RMK AO2 T01690123
K18A 220355Z AUTO 08003KT 10SM CLR 18/12 A3031 RMK AO2 T01750124
K18A 220335Z AUTO 09003KT 10SM CLR 18/12 A3031 RMK AO2 T01800124
K18A 220315Z AUTO 08003KT 10SM CLR 18/12 A3031 RMK AO2 T01840124
K18A 220255Z AUTO 08003KT 10SM CLR 19/12 A3031 RMK AO2 T01860122
K18A 220235Z AUTO 09003KT 10SM CLR 19/12 A3031 RMK AO2 T01890121
K18A 220215Z AUTO 08003KT 10SM CLR 19/12 A3030 RMK AO2 T01920122
K18A 220155Z AUTO 09003KT 10SM CLR 19/12 A3030 RMK AO2 T01850121
K18A 220135Z AUTO 09003KT 10SM CLR 18/12 A3030 RMK AO2 T01830118
K18A 220115Z AUTO 09003KT 10SM CLR 18/12 A3030 RMK AO2 T01770118
K18A 220055Z AUTO 09003KT 10SM CLR 18/12 A3031 RMK AO2 T01750120
K18A 220035Z AUTO 09003KT 10SM CLR 19/12 A3030 RMK AO2 T01850120
K18A 220015Z AUTO 09003KT 10SM CLR 18/12 A3030 RMK AO2 T01760124
K18A 212355Z AUTO 09003KT 10SM CLR 18/13 A3030 RMK AO2 T01790125 10251 20175
K18A 212335Z AUTO 09003KT 10SM CLR 19/13 A3030 RMK AO2 T01870130
K18A 212315Z AUTO 10003KT 10SM CLR 18/14 A3030 RMK AO2 T01820139
K18A 212255Z AUTO 00000KT 10SM CLR 20/14 A3029 RMK AO2 T01970144
K18A 212235Z AUTO 00000KT 10SM CLR 22/14 A3030 RMK AO2 T02190143
K18A 212215Z AUTO 00000KT 10SM CLR 24/12 A3029 RMK AO2 T02350123
K18A 212155Z AUTO 00000KT 10SM CLR 24/12 A3029 RMK AO2 T02360124
K18A 212135Z AUTO 00000KT 10SM CLR 24/11 A3029 RMK AO2 T02420111
K18A 212115Z AUTO 00000KT 10SM CLR 24/11 A3028 RMK AO2 T02430110
K18A 212055Z AUTO 16004KT 10SM CLR 25/11 A3028 RMK AO2 T02460105
K18A 212035Z AUTO 16004KT 10SM CLR 25/11 A3028 RMK AO2 T02490105
K18A 212015Z AUTO 11004KT 10SM CLR 25/10 A3028 RMK AO2 T02480103
K18A 211955Z AUTO 11004KT 10SM CLR 25/10 A3028 RMK AO2 T02490098
K18A 211935Z AUTO 12005KT 10SM CLR 25/09 A3028 RMK AO2 T02460091
K18A 211915Z AUTO 11005KT 10SM CLR 25/10 A3028 RMK AO2 T02500100
K18A 211855Z AUTO 13003KT 10SM CLR 25/10 A3028 RMK AO2 T02500099
K18A 211835Z AUTO 09005KT 10SM CLR 25/10 A3029 RMK AO2 T02460097
K18A 211815Z AUTO 17005KT 10SM CLR 25/10 A3029 RMK AO2 T02460099
K18A 211755Z AUTO 14004KT 10SM CLR 25/10 A3030 RMK AO2 T02470100 10247 20102
K18A 211735Z AUTO 12003KT 10SM CLR 25/10 A3031 RMK AO2 T02470098
K18A 211715Z AUTO 11003KT 10SM CLR 24/11 A3032 RMK AO2 T02410108
K18A 211655Z AUTO 16004KT 10SM CLR 24/10 A3032 RMK AO2 T02400097
K18A 211635Z AUTO 06003KT 10SM CLR 24/11 A3033 RMK AO2 T02370114
K18A 211615Z AUTO 14004KT 10SM CLR 23/11 A3033 RMK AO2 T02320111
K18A 211555Z AUTO 00000KT 10SM CLR 23/12 A3033 RMK AO2 T02260122
K18A 211535Z AUTO 00000KT 10SM CLR 22/12 A3034 RMK AO2 T02170121
K18A 211515Z AUTO 00000KT 10SM CLR 21/13 A3034 RMK AO2 T02130130
K18A 211455Z AUTO 12003KT 10SM CLR 20/12 A3034 RMK AO2 T02020124
K18A 211435Z AUTO 00000KT 10SM CLR 19/13 A3033 RMK AO2 T01880127
K18A 211415Z AUTO 07003KT 10SM CLR 18/13 A3033 RMK AO2 T01770128
K18A 211355Z AUTO 00000KT 10SM CLR 16/13 A3033 RMK AO2 T01620130
K18A 211335Z AUTO 00000KT 10SM CLR 15/13 A3033 RMK AO2 T01490125
K18A 211315Z AUTO 00000KT 10SM CLR 14/12 A3033 RMK AO2 T01350118
K18A 211255Z AUTO 00000KT 10SM CLR 12/11 A3032 RMK AO2 T01190110
K18A 211235Z AUTO 00000KT 10SM CLR 11/10 A3031 RMK AO2 T01070103
K18A 211215Z AUTO 00000KT 10SM CLR 11/10 A3030 RMK AO2 T01070101
K18A 211155Z AUTO 00000KT 10SM CLR 11/10 A3029 RMK AO2 T01110103 10135 20090
K18A 211135Z AUTO 00000KT 10SM CLR 11/10 A3029 RMK AO2 T01050096
K18A 211115Z AUTO 03003KT 10SM CLR 10/09 A3029 RMK AO2 T01020092
K18A 211055Z AUTO 00000KT 10SM CLR 11/10 A3028 RMK AO2 T01110100
K18A 211035Z AUTO 04004KT 10SM CLR 11/10 A3027 RMK AO2 T01110104
K18A 211015Z AUTO 05003KT 10SM CLR 11/10 A3027 RMK AO2 T01050102
K18A 210955Z AUTO 04003KT 10SM CLR 10/10 A3027 RMK AO2 T00980095
K18A 210935Z AUTO 00000KT 7SM CLR 09/09 A3027 RMK AO2 T00910088
K18A 210915Z AUTO 00000KT 7SM CLR 10/09 A3027 RMK AO2 T00960092